createdAt,value
2023-03-05T00:01:34.190Z,59909.59
2023-03-05T00:04:04.158Z,59911.38
2023-03-05T00:06:33.684Z,59902.59
2023-03-05T00:09:02.424Z,59912.84
2023-03-05T00:11:33.437Z,59907.06
2023-03-05T00:14:04.097Z,59893.03
2023-03-05T00:16:34.508Z,59899.19
2023-03-05T00:19:03.347Z,59886.03
2023-03-05T00:21:33.486Z,59879.38
2023-03-05T00:24:03.847Z,59869.28
2023-03-05T00:26:34.618Z,59862.50
2023-03-05T00:29:03.359Z,59849.63
2023-03-05T00:31:34.928Z,59843.09
2023-03-05T00:34:05.584Z,59842.69
2023-03-05T00:36:34.639Z,59830.44
2023-03-05T00:39:03.041Z,59819.66
2023-03-05T00:41:31.395Z,59825.81
2023-03-05T00:43:59.892Z,59821.13
2023-03-05T00:46:28.417Z,59815.19
2023-03-05T00:48:58.428Z,59816.97
2023-03-05T00:51:27.522Z,59816.28
2023-03-05T00:53:56.375Z,59811.03
2023-03-05T00:56:25.070Z,59816.66
2023-03-05T00:58:54.308Z,59808.34
2023-03-05T01:01:22.734Z,59810.34
2023-03-05T01:03:51.873Z,59811.56
2023-03-05T01:06:21.562Z,59804.94
2023-03-05T01:08:50.192Z,59806.72
2023-03-05T01:11:18.634Z,59810.72
2023-03-05T01:13:46.990Z,59821.81
2023-03-05T01:16:15.433Z,59815.72
2023-03-05T01:18:43.794Z,59819.13
2023-03-05T01:21:12.134Z,59829.22
2023-03-05T01:23:41.805Z,59828.50
2023-03-05T01:26:10.118Z,59827.75
2023-03-05T01:28:38.737Z,59826.91
2023-03-05T01:31:11.535Z,59832.31
2023-03-05T01:33:40.487Z,59834.44
2023-03-05T01:36:13.273Z,59833.69
2023-03-05T01:38:43.437Z,59839.84
2023-03-05T01:41:12.772Z,59836.22
2023-03-05T01:43:43.064Z,59826.13
2023-03-05T01:46:28.734Z,59829.75
2023-03-05T01:49:03.275Z,59830.53
2023-03-05T01:51:34.243Z,59818.56
2023-03-05T01:54:07.190Z,59810.72
2023-03-05T01:56:36.788Z,59807.47
2023-03-05T01:59:05.448Z,59808.56
2023-03-05T02:01:37.920Z,59807.41
2023-03-05T02:04:07.837Z,59800.94
2023-03-05T02:06:36.843Z,59806.72
2023-03-05T02:09:06.678Z,59803.16
2023-03-05T02:11:36.056Z,59793.78
2023-03-05T02:14:07.827Z,59800.09
2023-03-05T02:16:39.555Z,59793.63
2023-03-05T02:19:13.023Z,59792.16
2023-03-05T02:21:45.125Z,59786.78
2023-03-05T02:24:14.778Z,59795.63
2023-03-05T02:26:44.834Z,59787.00
2023-03-05T02:29:18.133Z,59780.00
2023-03-05T02:31:46.743Z,59767.91
2023-03-05T02:34:15.912Z,59780.16
2023-03-05T02:36:45.617Z,59783.91
2023-03-05T02:39:13.984Z,59774.38
2023-03-05T02:41:42.265Z,59780.53
2023-03-05T02:44:11.055Z,59778.38
2023-03-05T02:46:39.421Z,59777.06
2023-03-05T02:49:07.760Z,59786.69
2023-03-05T02:51:36.183Z,59772.59
2023-03-05T02:54:06.191Z,59769.88
2023-03-05T02:56:34.558Z,59768.97
2023-03-05T02:59:02.879Z,59779.44
2023-03-05T03:01:31.279Z,59773.28
2023-03-05T03:04:00.043Z,59765.75
2023-03-05T03:06:28.364Z,59771.50
2023-03-05T03:08:56.816Z,59776.53
2023-03-05T03:11:26.512Z,59782.13
2023-03-05T03:13:54.798Z,59787.38
2023-03-05T03:16:23.165Z,59778.38
2023-03-05T03:18:51.548Z,59777.13
2023-03-05T03:21:21.978Z,59770.06
2023-03-05T03:23:50.392Z,59776.91
2023-03-05T03:26:19.266Z,59778.69
2023-03-05T03:28:48.972Z,59785.38
2023-03-05T03:31:17.404Z,59772.75
2023-03-05T03:33:46.370Z,59781.63
2023-03-05T03:36:15.038Z,59773.28
2023-03-05T03:38:43.488Z,59779.59
2023-03-05T03:41:11.852Z,59776.53
2023-03-05T03:43:40.152Z,59784.84
2023-03-05T03:46:10.629Z,59777.59
2023-03-05T03:48:38.955Z,59775.97
2023-03-05T03:51:08.437Z,59779.06
2023-03-05T03:53:36.835Z,59787.00
2023-03-05T03:56:05.824Z,59770.59
2023-03-05T03:58:34.421Z,59773.28
2023-03-05T04:01:02.848Z,59768.81
2023-03-05T04:03:32.629Z,59773.84
2023-03-05T04:06:00.961Z,59775.84
2023-03-05T04:08:29.287Z,59769.88
2023-03-05T04:10:57.644Z,59762.91
2023-03-05T04:13:25.985Z,59762.91
2023-03-05T04:15:54.657Z,59760.72
2023-03-05T04:18:24.014Z,59760.03
2023-03-05T04:20:53.660Z,59756.03
2023-03-05T04:23:22.126Z,59751.97
2023-03-05T04:25:50.627Z,59756.97
2023-03-05T04:28:18.952Z,59755.41
2023-03-05T04:30:47.359Z,59746.56
2023-03-05T04:33:15.906Z,59738.66
2023-03-05T04:35:44.341Z,59735.56
2023-03-05T04:38:14.114Z,59735.78
2023-03-05T04:40:42.582Z,59725.88
2023-03-05T04:43:10.914Z,59729.09
2023-03-05T04:45:40.687Z,59728.03
2023-03-05T04:48:09.894Z,59719.41
2023-03-05T04:50:38.278Z,59717.94
2023-03-05T04:53:07.214Z,59722.88
2023-03-05T04:55:36.889Z,59719.78
2023-03-05T04:58:05.234Z,59721.78
2023-03-05T05:00:33.649Z,59718.31
2023-03-05T05:03:02.050Z,59705.41
2023-03-05T05:05:30.543Z,59713.88
2023-03-05T05:07:59.264Z,59716.94
2023-03-05T05:10:28.360Z,59719.84
2023-03-05T05:12:59.534Z,59707.22
2023-03-05T05:15:27.927Z,59697.16
2023-03-05T05:17:56.237Z,59714.25
2023-03-05T05:20:24.553Z,59712.63
2023-03-05T05:22:52.886Z,59712.63
2023-03-05T05:25:21.251Z,59711.53
2023-03-05T05:27:49.548Z,59702.94
2023-03-05T05:30:19.249Z,59710.47
2023-03-05T05:32:47.596Z,59705.25
2023-03-05T05:35:16.065Z,59702.69
2023-03-05T05:37:44.372Z,59712.63
2023-03-05T05:40:13.631Z,59707.94
2023-03-05T05:42:41.990Z,59713.31
2023-03-05T05:45:11.732Z,59710.78
2023-03-05T05:47:41.409Z,59718.00
2023-03-05T05:50:12.031Z,59708.63
2023-03-05T05:52:40.619Z,59708.47
2023-03-05T05:55:09.991Z,59712.94
2023-03-05T05:57:38.612Z,59710.63
2023-03-05T06:00:09.837Z,59710.09
2023-03-05T06:02:39.399Z,59717.63
2023-03-05T06:05:12.658Z,59715.09
2023-03-05T06:07:41.337Z,59715.84
2023-03-05T06:10:11.236Z,59717.63
2023-03-05T06:12:39.577Z,59711.19
2023-03-05T06:15:08.930Z,59712.63
2023-03-05T06:17:37.296Z,59723.94
2023-03-05T06:20:06.931Z,59721.94
2023-03-05T06:22:38.364Z,59720.34
2023-03-05T06:25:07.910Z,59729.31
2023-03-05T06:27:37.093Z,59727.16
2023-03-05T06:30:07.091Z,59727.72
2023-03-05T06:32:35.419Z,59721.78
2023-03-05T06:35:03.945Z,59725.31
2023-03-05T06:37:32.254Z,59731.47
2023-03-05T06:40:01.975Z,59736.66
2023-03-05T06:42:30.376Z,59734.88
2023-03-05T06:44:58.744Z,59748.19
2023-03-05T06:47:27.047Z,59754.41
2023-03-05T06:49:55.435Z,59758.19
2023-03-05T06:52:23.741Z,59757.13
2023-03-05T06:54:52.807Z,59762.91
2023-03-05T06:57:22.635Z,59759.28
2023-03-05T06:59:51.202Z,59757.13
2023-03-05T07:02:20.059Z,59758.44
2023-03-05T07:04:48.435Z,59760.72
2023-03-05T07:07:16.790Z,59768.13
2023-03-05T07:09:45.932Z,59768.66
2023-03-05T07:12:14.628Z,59778.38
2023-03-05T07:14:44.262Z,59770.06
2023-03-05T07:17:15.269Z,59783.75
2023-03-05T07:19:43.962Z,59786.63
2023-03-05T07:22:12.270Z,59791.63
2023-03-05T07:24:40.659Z,59796.16
2023-03-05T07:27:08.956Z,59788.38
2023-03-05T07:29:37.310Z,59788.38
2023-03-05T07:32:07.560Z,59781.22
2023-03-05T07:34:38.027Z,59792.41
2023-03-05T07:37:06.675Z,59783.53
2023-03-05T07:39:35.009Z,59784.47
2023-03-05T07:42:03.557Z,59787.16
2023-03-05T07:44:31.911Z,59785.91
2023-03-05T07:47:00.246Z,59795.78
2023-03-05T07:49:29.929Z,59801.16
2023-03-05T07:51:58.236Z,59797.41
2023-03-05T07:54:26.690Z,59798.09
2023-03-05T07:56:55.887Z,59796.16
2023-03-05T07:59:24.208Z,59803.88
2023-03-05T08:01:52.541Z,59803.31
2023-03-05T08:04:20.907Z,59800.25
2023-03-05T08:06:50.854Z,59798.09
2023-03-05T08:09:20.169Z,59795.94
2023-03-05T08:11:48.660Z,59797.41
2023-03-05T08:14:17.168Z,59808.34
2023-03-05T08:16:48.336Z,59798.63
2023-03-05T08:19:16.966Z,59808.19
2023-03-05T08:21:46.310Z,59798.09
2023-03-05T08:24:16.292Z,59809.41
2023-03-05T08:26:44.761Z,59824.53
2023-03-05T08:29:13.069Z,59829.22
2023-03-05T08:31:41.684Z,59827.06
2023-03-05T08:34:10.196Z,59845.41
2023-03-05T08:36:38.522Z,59852.41
2023-03-05T08:39:08.534Z,59842.84
2023-03-05T08:41:38.397Z,59852.94
2023-03-05T08:44:06.830Z,59870.19
2023-03-05T08:46:35.308Z,59859.56
2023-03-05T08:49:03.822Z,59846.63
2023-03-05T08:51:32.368Z,59856.03
2023-03-05T08:54:01.852Z,59834.75
2023-03-05T08:56:31.422Z,59846.63
2023-03-05T08:59:01.221Z,59853.34
2023-03-05T09:01:30.816Z,59869.69
2023-03-05T09:04:00.419Z,59869.28
2023-03-05T09:06:29.374Z,59880.47
2023-03-05T09:08:57.797Z,59876.69
2023-03-05T09:11:26.211Z,59889.19
2023-03-05T09:13:54.551Z,59877.94
2023-03-05T09:16:24.366Z,59884.41
2023-03-05T09:18:52.741Z,59886.03
2023-03-05T09:21:21.152Z,59896.13
2023-03-05T09:23:49.494Z,59888.41
2023-03-05T09:26:20.759Z,59889.47
2023-03-05T09:28:49.308Z,59891.41
2023-03-05T09:31:18.319Z,59890.88
2023-03-05T09:33:49.133Z,59897.34
2023-03-05T09:36:21.065Z,59897.19
2023-03-05T09:38:49.705Z,59899.50
2023-03-05T09:41:27.399Z,59899.19
2023-03-05T09:44:03.028Z,59917.00
2023-03-05T09:46:45.306Z,59904.91
2023-03-05T09:49:21.949Z,59909.59
2023-03-05T09:51:55.566Z,59916.63
2023-03-05T09:54:29.144Z,59926.50
2023-03-05T09:57:04.358Z,59922.56
2023-03-05T09:59:38.440Z,59919.47
2023-03-05T10:02:17.303Z,59912.47
2023-03-05T10:04:52.665Z,59911.75
2023-03-05T10:07:27.166Z,59909.06
2023-03-05T10:09:59.294Z,59910.28
2023-03-05T10:12:42.284Z,59914.31
2023-03-05T10:15:14.452Z,59914.63
2023-03-05T10:17:55.891Z,59917.00
2023-03-05T10:20:34.251Z,59918.22
2023-03-05T10:23:17.876Z,59912.69
2023-03-05T10:25:59.258Z,59897.34
2023-03-05T10:28:36.912Z,59908.53
2023-03-05T10:31:24.834Z,59909.22
2023-03-05T10:34:04.460Z,59901.66
2023-03-05T10:36:46.852Z,59895.03
2023-03-05T10:40:00.849Z,59895.56
2023-03-05T10:42:36.709Z,59892.50
2023-03-05T10:45:15.150Z,59869.28
2023-03-05T10:47:50.469Z,59857.09
2023-03-05T10:50:22.613Z,59833.13
2023-03-05T10:53:04.268Z,59832.59
2023-03-05T10:55:33.260Z,59839.28
2023-03-05T10:58:03.290Z,59830.13
2023-03-05T11:00:32.273Z,59819.66
2023-03-05T11:03:02.721Z,59820.19
2023-03-05T11:05:45.580Z,59830.84
2023-03-05T11:08:33.213Z,59838.94
2023-03-05T11:11:14.771Z,59844.16
2023-03-05T11:14:00.008Z,59844.31
2023-03-05T11:16:30.555Z,59847.03
2023-03-05T11:19:19.954Z,59847.53
2023-03-05T11:22:05.686Z,59867.91
2023-03-05T11:24:35.388Z,59863.19
2023-03-05T11:27:10.270Z,59871.44
2023-03-05T11:29:49.503Z,59887.72
2023-03-05T11:32:22.608Z,59883.69
2023-03-05T11:34:51.207Z,59880.84
2023-03-05T11:37:27.238Z,59886.56
2023-03-05T11:40:21.035Z,59898.13
2023-03-05T11:42:56.540Z,59899.34
2023-03-05T11:45:26.676Z,59908.13
2023-03-05T11:47:57.098Z,59914.31
2023-03-05T11:50:27.595Z,59919.31
2023-03-05T11:52:58.796Z,59927.41
2023-03-05T11:55:31.076Z,59927.25
2023-03-05T11:58:14.017Z,59918.94
2023-03-05T12:00:45.808Z,59916.84
2023-03-05T12:03:17.155Z,59909.06
2023-03-05T12:05:49.275Z,59913.53
2023-03-05T12:08:25.572Z,59913.53
2023-03-05T12:10:58.525Z,59920.25
2023-03-05T12:13:32.708Z,59923.25
2023-03-05T12:16:11.525Z,59925.97
2023-03-05T12:18:49.047Z,59930.50
2023-03-05T12:21:26.566Z,59917.72
2023-03-05T12:23:58.988Z,59949.56
2023-03-05T12:27:07.114Z,59943.41
2023-03-05T12:29:41.838Z,59957.13
2023-03-05T12:32:43.432Z,59955.66
2023-03-05T12:35:24.676Z,59949.56
2023-03-05T12:38:06.158Z,59991.69
2023-03-05T12:40:39.377Z,59967.00
2023-03-05T12:43:30.202Z,59974.03
2023-03-05T12:46:26.792Z,59969.16
2023-03-05T12:48:55.243Z,59976.16
2023-03-05T12:51:39.731Z,59962.13
2023-03-05T12:54:29.011Z,59966.13
2023-03-05T12:56:58.828Z,59956.75
2023-03-05T12:59:38.401Z,59963.75
2023-03-05T13:02:20.214Z,59965.75
2023-03-05T13:04:49.263Z,59979.28
2023-03-05T13:07:19.741Z,59985.19
2023-03-05T13:09:55.710Z,59992.75
2023-03-05T13:12:26.041Z,59996.16
2023-03-05T13:15:03.621Z,60004.81
2023-03-05T13:17:37.975Z,60008.03
2023-03-05T13:20:21.155Z,59994.00
2023-03-05T13:22:49.519Z,60002.63
2023-03-05T13:25:20.590Z,60002.13
2023-03-05T13:27:48.988Z,60013.28
2023-03-05T13:30:28.060Z,60008.03
2023-03-05T13:33:02.844Z,60002.63
2023-03-05T13:35:31.671Z,59995.31
2023-03-05T13:38:00.827Z,59993.84
2023-03-05T13:40:30.635Z,59997.09
2023-03-05T13:43:11.992Z,59989.69
2023-03-05T13:45:44.433Z,59993.47
2023-03-05T13:48:20.477Z,60010.75
2023-03-05T13:50:56.240Z,60003.72
2023-03-05T13:53:26.736Z,59997.47
2023-03-05T13:55:58.247Z,60000.72
2023-03-05T13:58:53.247Z,59981.97
2023-03-05T14:01:36.713Z,59975.63
2023-03-05T14:04:09.057Z,59970.06
2023-03-05T14:06:42.548Z,59956.03
2023-03-05T14:09:21.267Z,59951.34
2023-03-05T14:11:58.170Z,59954.72
2023-03-05T14:14:28.329Z,59960.38
2023-03-05T14:17:38.556Z,59949.00
2023-03-05T14:20:23.051Z,59933.91
2023-03-05T14:22:53.422Z,59927.19
2023-03-05T14:25:34.944Z,59922.47
2023-03-05T14:28:05.385Z,59938.75
2023-03-05T14:30:36.092Z,59936.22
2023-03-05T14:33:06.176Z,59934.06
2023-03-05T14:35:34.627Z,59920.72
2023-03-05T14:38:03.304Z,59920.00
2023-03-05T14:40:33.974Z,59920.56
2023-03-05T14:43:04.017Z,59931.22
2023-03-05T14:45:34.540Z,59907.06
2023-03-05T14:48:07.101Z,59918.22
2023-03-05T14:50:37.877Z,59924.41
2023-03-05T14:53:10.018Z,59908.13
2023-03-05T14:55:39.336Z,59906.22
2023-03-05T14:58:13.278Z,59908.13
2023-03-05T15:00:41.841Z,59912.00
2023-03-05T15:03:13.404Z,59899.34
2023-03-05T15:05:42.338Z,59902.19
2023-03-05T15:08:15.713Z,59904.91
2023-03-05T15:10:44.107Z,59906.00
2023-03-05T15:13:14.480Z,59908.13
2023-03-05T15:15:43.936Z,59913.78
2023-03-05T15:18:15.182Z,59900.19
2023-03-05T15:20:44.003Z,59891.94
2023-03-05T15:23:13.212Z,59905.28
2023-03-05T15:25:42.417Z,59895.56
2023-03-05T15:28:11.132Z,59895.97
2023-03-05T15:30:42.422Z,59890.88
2023-03-05T15:33:13.950Z,59886.94
2023-03-05T15:35:42.919Z,59879.38
2023-03-05T15:38:11.607Z,59884.41
2023-03-05T15:40:40.015Z,59877.63
2023-03-05T15:43:08.382Z,59883.00
2023-03-05T15:45:36.697Z,59875.44
2023-03-05T15:48:05.447Z,59880.31
2023-03-05T15:50:35.436Z,59867.13
2023-03-05T15:53:03.728Z,59874.69
2023-03-05T15:55:32.106Z,59872.91
2023-03-05T15:58:00.471Z,59871.44
2023-03-05T16:00:31.822Z,59871.81
2023-03-05T16:03:00.236Z,59862.81
2023-03-05T16:05:28.738Z,59867.50
2023-03-05T16:07:59.918Z,59866.97
2023-03-05T16:10:30.715Z,59865.75
2023-03-05T16:13:02.624Z,59873.28
2023-03-05T16:15:33.278Z,59875.44
2023-03-05T16:18:05.692Z,59866.44
2023-03-05T16:20:36.201Z,59872.91
2023-03-05T16:23:07.072Z,59869.84
2023-03-05T16:25:35.611Z,59861.75
2023-03-05T16:28:04.188Z,59854.16
2023-03-05T16:30:33.509Z,59855.63
2023-03-05T16:33:01.902Z,59865.75
2023-03-05T16:35:30.800Z,59851.31
2023-03-05T16:37:59.311Z,59850.94
2023-03-05T16:40:38.813Z,59852.41
2023-03-05T16:43:17.729Z,59866.50
2023-03-05T16:45:46.027Z,59849.31
2023-03-05T16:48:14.338Z,59835.84
2023-03-05T16:50:42.645Z,59846.63
2023-03-05T16:53:11.006Z,59853.50
2023-03-05T16:55:40.769Z,59850.41
2023-03-05T16:58:09.047Z,59835.47
2023-03-05T17:00:37.847Z,59843.38
2023-03-05T17:03:06.973Z,59842.53
2023-03-05T17:05:36.949Z,59849.16
2023-03-05T17:08:05.997Z,59849.16
2023-03-05T17:10:34.656Z,59849.16
2023-03-05T17:13:05.195Z,59837.22
2023-03-05T17:15:34.055Z,59838.00
2023-03-05T17:18:02.560Z,59845.91
2023-03-05T17:20:31.201Z,59850.78
2023-03-05T17:23:02.089Z,59846.63
2023-03-05T17:25:30.606Z,59844.84
2023-03-05T17:27:59.813Z,59849.31
2023-03-05T17:30:31.307Z,59836.22
2023-03-05T17:32:59.835Z,59842.00
2023-03-05T17:35:29.635Z,59828.28
2023-03-05T17:37:59.031Z,59841.63
2023-03-05T17:40:27.406Z,59834.06
2023-03-05T17:42:56.095Z,59833.69
2023-03-05T17:45:24.667Z,59824.72
2023-03-05T17:47:54.434Z,59815.34
2023-03-05T17:50:22.808Z,59814.81
2023-03-05T17:52:51.191Z,59814.81
2023-03-05T17:55:20.126Z,59811.94
2023-03-05T17:57:48.467Z,59814.66
2023-03-05T18:00:19.539Z,59815.03
2023-03-05T18:02:48.399Z,59816.81
2023-03-05T18:05:19.257Z,59812.88
2023-03-05T18:07:48.199Z,59813.19
2023-03-05T18:10:19.389Z,59808.72
2023-03-05T18:12:48.244Z,59811.41
2023-03-05T18:15:19.775Z,59810.34
2023-03-05T18:17:48.271Z,59804.41
2023-03-05T18:20:27.399Z,59804.63
2023-03-05T18:22:56.857Z,59799.19
2023-03-05T18:25:30.796Z,59804.94
2023-03-05T18:28:00.664Z,59812.34
2023-03-05T18:30:29.789Z,59803.88
2023-03-05T18:32:58.834Z,59795.22
2023-03-05T18:35:30.025Z,59802.09
2023-03-05T18:37:58.591Z,59793.09
2023-03-05T18:40:29.136Z,59799.94
2023-03-05T18:43:01.352Z,59803.88
2023-03-05T18:45:31.097Z,59793.63
2023-03-05T18:47:59.429Z,59781.38
2023-03-05T18:50:29.839Z,59793.63
2023-03-05T18:52:58.300Z,59785.91
2023-03-05T18:55:29.055Z,59788.06
2023-03-05T18:57:58.253Z,59776.91
2023-03-05T19:00:28.839Z,59785.53
2023-03-05T19:02:58.536Z,59775.84
2023-03-05T19:05:27.629Z,59791.63
2023-03-05T19:07:58.452Z,59781.38
2023-03-05T19:10:29.364Z,59777.97
2023-03-05T19:13:08.038Z,59766.44
2023-03-05T19:15:36.373Z,59775.44
2023-03-05T19:18:04.916Z,59765.75
2023-03-05T19:20:33.408Z,59774.91
2023-03-05T19:23:03.257Z,59770.44
2023-03-05T19:25:31.661Z,59777.28
2023-03-05T19:28:00.033Z,59782.13
2023-03-05T19:30:28.540Z,59771.50
2023-03-05T19:32:57.600Z,59768.66
2023-03-05T19:35:26.015Z,59774.75
2023-03-05T19:37:54.383Z,59771.13
2023-03-05T19:40:24.413Z,59771.50
2023-03-05T19:42:52.805Z,59770.44
2023-03-05T19:45:21.195Z,59773.69
2023-03-05T19:47:49.540Z,59787.16
2023-03-05T19:50:18.152Z,59776.91
2023-03-05T19:52:46.565Z,59761.44
2023-03-05T19:55:15.156Z,59762.91
2023-03-05T19:57:46.364Z,59768.28
2023-03-05T20:00:15.179Z,59776.59
2023-03-05T20:02:44.152Z,59773.28
2023-03-05T20:05:12.533Z,59771.50
2023-03-05T20:07:40.852Z,59778.53
2023-03-05T20:10:10.082Z,59777.28
2023-03-05T20:12:39.230Z,59780.31
2023-03-05T20:15:09.754Z,59780.53
2023-03-05T20:17:38.120Z,59780.53
2023-03-05T20:20:08.053Z,59767.06
2023-03-05T20:22:36.446Z,59770.44
2023-03-05T20:25:06.820Z,59762.91
2023-03-05T20:27:35.194Z,59764.53
2023-03-05T20:30:05.167Z,59760.72
2023-03-05T20:32:34.886Z,59751.34
2023-03-05T20:35:03.212Z,59754.25
2023-03-05T20:37:40.078Z,59763.81
2023-03-05T20:40:10.020Z,59763.81
2023-03-05T20:42:38.500Z,59761.44
2023-03-05T20:45:08.100Z,59756.44
2023-03-05T20:47:40.819Z,59753.75
2023-03-05T20:50:10.817Z,59751.72
2023-03-05T20:52:39.727Z,59765.22
2023-03-05T20:55:09.742Z,59768.28
2023-03-05T20:57:39.098Z,59757.88
2023-03-05T21:00:08.558Z,59763.28
2023-03-05T21:02:38.227Z,59767.59
2023-03-05T21:05:07.435Z,59765.03
2023-03-05T21:07:35.936Z,59770.50
2023-03-05T21:10:04.872Z,59756.44
2023-03-05T21:12:33.415Z,59760.56
2023-03-05T21:15:01.766Z,59767.06
2023-03-05T21:17:30.097Z,59766.13
2023-03-05T21:19:59.811Z,59754.41
2023-03-05T21:22:28.490Z,59749.63
2023-03-05T21:25:03.275Z,59740.63
2023-03-05T21:27:31.635Z,59735.03
2023-03-05T21:29:59.928Z,59737.56
2023-03-05T21:32:28.257Z,59740.25
2023-03-05T21:34:57.230Z,59728.78
2023-03-05T21:37:27.981Z,59730.00
2023-03-05T21:39:56.454Z,59717.25
2023-03-05T21:42:24.995Z,59721.25
2023-03-05T21:44:53.331Z,59709.91
2023-03-05T21:47:21.633Z,59705.09
2023-03-05T21:49:49.987Z,59701.84
2023-03-05T21:52:19.347Z,59705.94
2023-03-05T21:54:49.080Z,59703.63
2023-03-05T21:57:17.370Z,59705.78
2023-03-05T21:59:45.690Z,59711.53
2023-03-05T22:02:15.732Z,59714.00
2023-03-05T22:04:44.354Z,59714.41
2023-03-05T22:07:12.998Z,59697.72
2023-03-05T22:09:41.331Z,59707.22
2023-03-05T22:12:15.071Z,59704.16
2023-03-05T22:14:43.382Z,59693.22
2023-03-05T22:17:11.695Z,59691.78
2023-03-05T22:19:39.993Z,59696.78
2023-03-05T22:22:08.384Z,59694.31
2023-03-05T22:24:36.672Z,59694.31
2023-03-05T22:27:05.164Z,59677.38
2023-03-05T22:29:34.862Z,59687.31
2023-03-05T22:32:03.241Z,59677.78
2023-03-05T22:34:31.689Z,59673.06
2023-03-05T22:37:00.022Z,59667.69
2023-03-05T22:39:28.446Z,59687.84
2023-03-05T22:41:56.733Z,59670.78
2023-03-05T22:44:25.218Z,59663.38
2023-03-05T22:46:54.968Z,59671.69
2023-03-05T22:49:23.327Z,59662.31
2023-03-05T22:51:51.640Z,59668.44
2023-03-05T22:54:20.007Z,59671.69
2023-03-05T22:56:48.475Z,59665.38
2023-03-05T22:59:16.797Z,59662.53
2023-03-05T23:01:45.146Z,59653.16
2023-03-05T23:04:29.477Z,59652.63
2023-03-05T23:06:57.800Z,59653.69
2023-03-05T23:09:26.250Z,59657.69
2023-03-05T23:11:54.543Z,59653.16
2023-03-05T23:14:22.873Z,59650.47
2023-03-05T23:16:51.227Z,59647.25
2023-03-05T23:19:20.898Z,59648.00
2023-03-05T23:21:49.262Z,59643.31
2023-03-05T23:24:17.614Z,59637.56
2023-03-05T23:26:46.033Z,59640.47
2023-03-05T23:29:14.795Z,59635.78
2023-03-05T23:31:43.113Z,59632.41
2023-03-05T23:34:11.698Z,59627.16
2023-03-05T23:36:42.151Z,59627.53
2023-03-05T23:39:10.536Z,59628.25
2023-03-05T23:41:38.861Z,59626.78
2023-03-05T23:44:07.165Z,59627.16
2023-03-05T23:46:35.601Z,59620.69
2023-03-05T23:49:03.961Z,59624.16
2023-03-05T23:51:32.335Z,59626.06
2023-03-05T23:54:02.033Z,59622.31
2023-03-05T23:56:31.426Z,59627.00
2023-03-05T23:59:00.580Z,59627.53
